Time;durP1;ratioP1;P1;durP2;ratioP2;P2;SDS_P1;SDS_P2;PMS_P1;PMS_P2;Temp;Humidity;BMP_temperature;BMP_pressure;BME280_temperature;BME280_humidity;BME280_pressure;Samples;Min_cycle;Max_cycle;Signal;HPM_P1;HPM_P2
2021/10/01 00:01:45;;;;;;;8.23;5.15;;;;;;;7.92;100.00;100070.00;5015843;28;20194;-71
2021/10/01 00:04:12;;;;;;;7.35;5.80;;;;;;;7.94;100.00;100059.22;5015401;28;20671;-70
2021/10/01 00:06:39;;;;;;;9.02;5.57;;;;;;;7.80;100.00;100066.91;5015986;28;20558;-70
2021/10/01 00:09:06;;;;;;;8.38;5.68;;;;;;;7.88;100.00;100063.00;5016284;28;20211;-71
2021/10/01 00:11:33;;;;;;;7.07;5.53;;;;;;;7.89;100.00;100058.50;5016008;28;20548;-70
2021/10/01 00:14:00;;;;;;;8.55;5.38;;;;;;;7.81;100.00;100055.25;5015874;28;20575;-71
2021/10/01 00:16:28;;;;;;;7.55;5.55;;;;;;;7.81;100.00;100049.91;5015934;28;20191;-70
2021/10/01 00:18:54;;;;;;;7.80;5.50;;;;;;;7.78;100.00;100048.22;5015640;28;20548;-71
2021/10/01 00:21:21;;;;;;;6.40;5.45;;;;;;;7.83;100.00;100042.69;5015887;28;20274;-71
2021/10/01 00:23:48;;;;;;;8.07;5.70;;;;;;;7.69;100.00;100044.09;5015585;28;20203;-70
2021/10/01 00:26:14;;;;;;;6.18;5.57;;;;;;;7.65;100.00;100037.09;5019417;28;20230;-70
2021/10/01 00:28:41;;;;;;;7.60;5.50;;;;;;;7.78;100.00;100039.28;5018479;28;20229;-71
2021/10/01 00:31:07;;;;;;;9.27;5.70;;;;;;;7.64;100.00;100037.16;5016855;28;20190;-70
2021/10/01 00:33:35;;;;;;;7.30;5.20;;;;;;;7.64;100.00;100040.72;5027890;28;20198;-70
2021/10/01 00:36:03;;;;;;;8.45;5.22;;;;;;;7.64;100.00;100031.78;5035148;28;20288;-70
2021/10/01 00:38:30;;;;;;;7.32;4.95;;;;;;;7.48;100.00;100036.88;5035134;28;20682;-70
2021/10/01 00:40:56;;;;;;;5.95;4.38;;;;;;;7.62;100.00;100033.66;5035181;28;20191;-71
2021/10/01 00:43:23;;;;;;;8.60;5.80;;;;;;;7.52;100.00;100038.50;5032800;28;20288;-70
2021/10/01 00:45:50;;;;;;;6.00;4.93;;;;;;;7.45;100.00;100035.19;5020509;28;20225;-70
2021/10/01 00:48:16;;;;;;;5.35;4.85;;;;;;;7.40;100.00;100030.94;5031781;28;20555;-70
2021/10/01 00:50:45;;;;;;;8.70;4.93;;;;;;;7.47;100.00;100030.66;5034675;28;20202;-71
2021/10/01 00:53:12;;;;;;;7.35;4.88;;;;;;;7.64;100.00;100027.31;5034945;28;20186;-70
2021/10/01 00:55:40;;;;;;;6.25;4.63;;;;;;;7.69;100.00;100029.81;5021995;28;20199;-69
2021/10/01 00:58:06;;;;;;;6.35;4.78;;;;;;;7.84;100.00;100022.97;5017244;28;20686;-70
2021/10/01 01:00:33;;;;;;;5.85;4.70;;;;;;;7.70;100.00;100021.69;5032654;28;20197;-70
2021/10/01 01:03:04;;;;;;;7.03;5.38;;;;;;;7.56;100.00;100016.03;5019812;28;20212;-70
2021/10/01 01:05:38;;;;;;;6.20;4.50;;;;;;;7.48;100.00;100012.75;5014758;28;20213;-70
2021/10/01 01:08:10;;;;;;;6.15;4.55;;;;;;;7.41;100.00;100017.47;5031632;28;20617;-70
2021/10/01 01:10:46;;;;;;;5.05;3.85;;;;;;;7.59;100.00;100020.38;5034170;28;20210;-71
2021/10/01 01:13:21;;;;;;;3.90;3.50;;;;;;;7.50;100.00;100008.22;5032994;28;20191;-70
2021/10/01 01:15:57;;;;;;;4.65;3.72;;;;;;;7.46;100.00;100007.47;5022782;28;20277;-71
2021/10/01 01:18:30;;;;;;;5.75;4.55;;;;;;;7.51;100.00;100002.81;5014654;28;20198;-70
2021/10/01 01:20:59;;;;;;;5.20;3.97;;;;;;;7.35;100.00;100003.44;5022170;28;20186;-70
2021/10/01 01:23:52;;;;;;;4.25;3.60;;;;;;;7.44;100.00;100003.09;5034514;28;20210;-70
2021/10/01 01:26:38;;;;;;;4.68;3.40;;;;;;;7.51;100.00;99989.41;5034091;28;20253;-69
2021/10/01 01:29:17;;;;;;;5.78;4.13;;;;;;;7.39;100.00;99992.53;5033904;28;20325;-70
2021/10/01 01:31:50;;;;;;;5.15;4.30;;;;;;;7.26;100.00;100000.19;5021682;28;20251;-70
2021/10/01 01:34:24;;;;;;;4.40;4.00;;;;;;;7.24;100.00;99993.16;5014211;28;20216;-71
2021/10/01 01:36:56;;;;;;;6.72;4.60;;;;;;;7.23;100.00;99994.06;5016778;28;20269;-71
2021/10/01 01:39:23;;;;;;;6.03;4.53;;;;;;;7.20;100.00;99992.38;5033874;28;20186;-70
2021/10/01 01:41:51;;;;;;;5.53;4.68;;;;;;;7.29;100.00;99981.31;5034173;28;20201;-70
2021/10/01 01:44:19;;;;;;;5.25;4.45;;;;;;;7.32;100.00;99981.19;5032090;28;20192;-71
2021/10/01 01:46:46;;;;;;;5.97;4.93;;;;;;;7.15;100.00;99980.13;5013859;28;20222;-70
2021/10/01 01:49:15;;;;;;;4.75;4.10;;;;;;;7.16;100.00;99973.81;5014270;28;20191;-69
2021/10/01 01:51:44;;;;;;;6.50;4.70;;;;;;;7.15;100.00;99972.09;5013987;28;20187;-71
2021/10/01 01:54:12;;;;;;;10.07;5.45;;;;;;;7.12;100.00;99980.22;5013819;28;20202;-70
2021/10/01 01:56:41;;;;;;;4.90;3.80;;;;;;;7.12;100.00;99974.88;5028786;28;20190;-72
2021/10/01 01:59:08;;;;;;;4.00;3.60;;;;;;;7.18;100.00;99971.97;5033805;28;20194;-71
2021/10/01 02:01:36;;;;;;;5.90;4.20;;;;;;;7.16;100.00;99980.03;5033341;28;20233;-71
2021/10/01 02:04:04;;;;;;;6.05;4.10;;;;;;;7.17;100.00;99970.19;5030067;28;20196;-73
2021/10/01 02:06:32;;;;;;;4.72;4.25;;;;;;;7.01;100.00;99969.91;5033609;28;20206;-72
2021/10/01 02:09:01;;;;;;;6.18;5.28;;;;;;;6.97;100.00;99973.66;5033603;28;20216;-72
2021/10/01 02:11:30;;;;;;;7.55;4.93;;;;;;;7.08;100.00;99975.00;5026624;28;20187;-72
2021/10/01 02:13:58;;;;;;;6.53;4.60;;;;;;;7.00;100.00;99968.16;5013704;28;20201;-71
2021/10/01 02:16:26;;;;;;;9.38;5.13;;;;;;;7.03;100.00;99970.72;5013663;28;20540;-71
2021/10/01 02:18:56;;;;;;;6.60;4.32;;;;;;;7.09;100.00;99968.69;5013498;28;20204;-70
2021/10/01 02:21:25;;;;;;;7.40;6.70;;;;;;;7.13;100.00;99960.56;5013345;28;20199;-71
2021/10/01 02:23:52;;;;;;;7.50;6.07;;;;;;;7.38;100.00;99963.16;5013499;28;20234;-71
2021/10/01 02:26:36;;;;;;;14.32;9.18;;;;;;;7.46;100.00;99953.00;5013444;28;20211;-70
2021/10/01 02:29:11;;;;;;;8.85;7.60;;;;;;;7.48;99.70;99956.47;5013259;28;20244;-69
2021/10/01 02:31:48;;;;;;;6.95;6.25;;;;;;;7.28;99.40;99949.22;5025087;28;20236;-72
2021/10/01 02:34:19;;;;;;;6.80;5.15;;;;;;;6.96;100.00;99953.16;5033395;28;20189;-70
2021/10/01 02:36:45;;;;;;;5.72;4.65;;;;;;;6.99;100.00;99947.69;5033510;28;20631;-70
2021/10/01 02:39:12;;;;;;;6.07;4.95;;;;;;;6.92;100.00;99943.47;5019406;28;20191;-69
2021/10/01 02:41:40;;;;;;;5.20;4.32;;;;;;;6.89;100.00;99937.31;5013736;28;20711;-70
2021/10/01 02:44:07;;;;;;;6.55;4.75;;;;;;;6.96;100.00;99937.94;5013253;28;20197;-71
2021/10/01 02:46:34;;;;;;;5.88;4.30;;;;;;;7.15;100.00;99924.75;5014428;28;20218;-70
2021/10/01 02:49:00;;;;;;;5.20;4.28;;;;;;;7.12;100.00;99919.50;5013589;28;20197;-70
2021/10/01 02:51:31;;;;;;;21.77;16.13;;;;;;;6.93;100.00;99907.75;5013641;28;20675;-70
2021/10/01 02:54:04;;;;;;;7.68;4.75;;;;;;;6.97;100.00;99912.06;5013432;28;20191;-70
2021/10/01 02:56:37;;;;;;;5.90;4.70;;;;;;;6.99;100.00;99910.22;5013558;28;20548;-70
2021/10/01 02:59:06;;;;;;;7.07;4.55;;;;;;;6.99;100.00;99907.53;5013631;28;20191;-69
2021/10/01 03:01:36;;;;;;;6.88;4.78;;;;;;;6.87;100.00;99909.75;5013442;28;20559;-70
2021/10/01 03:04:06;;;;;;;6.22;4.80;;;;;;;6.67;100.00;99904.25;5013518;28;20195;-70
2021/10/01 03:06:34;;;;;;;6.03;4.82;;;;;;;6.61;100.00;99910.72;5018243;28;20213;-70
2021/10/01 03:09:02;;;;;;;5.47;3.92;;;;;;;6.65;100.00;99903.47;5033014;28;20503;-71
2021/10/01 03:11:31;;;;;;;5.63;4.40;;;;;;;6.82;100.00;99906.34;5033154;28;20567;-70
2021/10/01 03:14:00;;;;;;;7.00;4.65;;;;;;;6.79;100.00;99901.13;5032936;28;20285;-71
2021/10/01 03:16:31;;;;;;;5.05;4.47;;;;;;;6.65;100.00;99896.28;5021617;28;20601;-70
2021/10/01 03:18:58;;;;;;;6.82;4.80;;;;;;;6.61;100.00;99893.78;5032786;28;20229;-70
2021/10/01 03:21:26;;;;;;;5.18;4.43;;;;;;;6.66;100.00;99897.16;5032769;28;20194;-70
2021/10/01 03:23:54;;;;;;;6.43;3.63;;;;;;;6.57;100.00;99894.81;5033026;28;20202;-70
2021/10/01 03:26:21;;;;;;;7.68;4.25;;;;;;;6.50;100.00;99888.84;5030296;28;20221;-71
2021/10/01 03:28:48;;;;;;;4.75;4.18;;;;;;;6.53;100.00;99890.50;5032753;28;20607;-70
2021/10/01 03:31:15;;;;;;;6.70;4.70;;;;;;;6.60;100.00;99886.69;5023108;28;20195;-70
2021/10/01 03:33:45;;;;;;;5.95;4.55;;;;;;;6.46;100.00;99882.72;5035571;28;20650;-71
2021/10/01 03:36:12;;;;;;;7.55;4.80;;;;;;;6.50;100.00;99879.94;5036494;28;20198;-71
2021/10/01 03:38:39;;;;;;;5.43;4.30;;;;;;;6.33;100.00;99876.09;5033688;28;20198;-70
2021/10/01 03:41:06;;;;;;;5.30;4.18;;;;;;;6.27;100.00;99873.63;5016480;28;20194;-71
2021/10/01 03:43:32;;;;;;;7.00;4.82;;;;;;;6.30;100.00;99873.50;5016369;28;20198;-72
2021/10/01 03:45:59;;;;;;;8.77;4.57;;;;;;;6.38;100.00;99871.44;5020588;28;20689;-71
2021/10/01 03:48:26;;;;;;;8.93;4.90;;;;;;;6.34;100.00;99871.59;5016372;28;20187;-71
2021/10/01 03:50:54;;;;;;;7.78;5.18;;;;;;;6.34;100.00;99869.78;5016408;28;20229;-72
2021/10/01 03:53:21;;;;;;;7.25;4.30;;;;;;;6.38;100.00;99866.09;5016320;28;20202;-71
2021/10/01 03:55:48;;;;;;;6.45;4.32;;;;;;;6.37;100.00;99869.66;5015833;28;20191;-72
2021/10/01 03:58:14;;;;;;;5.22;4.18;;;;;;;6.38;100.00;99871.44;5017155;28;20205;-70
2021/10/01 04:00:44;;;;;;;5.10;4.43;;;;;;;6.39;100.00;99872.31;5035823;28;20194;-70
2021/10/01 04:03:10;;;;;;;8.18;4.72;;;;;;;6.45;100.00;99859.56;5035652;28;20193;-70
2021/10/01 04:05:37;;;;;;;10.27;4.80;;;;;;;6.51;100.00;99870.97;5031859;28;20195;-71
2021/10/01 04:08:09;;;;;;;6.50;5.82;;;;;;;6.53;100.00;99863.75;5016105;28;20566;-70
2021/10/01 04:10:36;;;;;;;10.13;7.88;;;;;;;6.75;100.00;99864.69;5015972;28;20189;-71
2021/10/01 04:13:03;;;;;;;10.30;8.30;;;;;;;6.95;100.00;99860.38;5015897;28;20206;-71
2021/10/01 04:15:30;;;;;;;12.18;8.80;;;;;;;6.87;100.00;99858.91;5016013;28;20536;-70
2021/10/01 04:17:57;;;;;;;12.80;9.43;;;;;;;6.93;99.81;99856.91;5015625;28;20278;-70
2021/10/01 04:20:23;;;;;;;8.85;7.55;;;;;;;6.81;98.55;99863.59;5015862;28;20559;-71
2021/10/01 04:22:50;;;;;;;17.27;10.18;;;;;;;6.75;99.67;99864.69;5016717;28;20202;-71
2021/10/01 04:25:18;;;;;;;8.80;7.25;;;;;;;6.93;98.86;99856.91;5015774;28;20213;-71
2021/10/01 04:27:45;;;;;;;14.02;11.45;;;;;;;6.92;98.28;99861.38;5015171;28;20551;-71
2021/10/01 04:30:11;;;;;;;7.78;6.03;;;;;;;6.78;98.39;99864.56;5015837;28;20199;-70
2021/10/01 04:32:44;;;;;;;4.45;3.85;;;;;;;6.42;99.12;99862.38;5015245;28;20282;-71
2021/10/01 04:35:11;;;;;;;7.75;4.40;;;;;;;6.32;100.00;99868.09;5015581;28;20187;-71
2021/10/01 04:37:38;;;;;;;5.45;4.72;;;;;;;6.26;100.00;99864.75;5015268;28;20290;-70
2021/10/01 04:40:05;;;;;;;4.70;4.00;;;;;;;6.21;100.00;99863.13;5015121;28;20203;-71
2021/10/01 04:42:33;;;;;;;6.55;4.90;;;;;;;6.13;100.00;99859.84;5015556;28;20609;-72
2021/10/01 04:45:00;;;;;;;8.68;5.00;;;;;;;6.21;100.00;99866.69;5014917;28;20199;-71
2021/10/01 04:47:27;;;;;;;6.07;4.75;;;;;;;6.29;100.00;99857.50;5015191;28;20516;-71
2021/10/01 04:49:53;;;;;;;6.00;4.57;;;;;;;6.16;100.00;99865.13;5015309;28;20278;-71
2021/10/01 04:52:20;;;;;;;5.00;4.50;;;;;;;6.15;100.00;99866.03;5025880;28;20655;-71
2021/10/01 04:54:46;;;;;;;7.60;5.15;;;;;;;6.16;100.00;99863.31;5017679;28;20202;-71
2021/10/01 04:57:13;;;;;;;6.47;5.22;;;;;;;6.23;100.00;99861.28;5014849;28;20189;-70
2021/10/01 04:59:41;;;;;;;5.25;4.70;;;;;;;6.16;100.00;99860.63;5015061;28;20553;-71
2021/10/01 05:02:07;;;;;;;6.57;5.20;;;;;;;6.24;100.00;99857.66;5015052;28;20206;-72
2021/10/01 05:04:34;;;;;;;5.95;5.35;;;;;;;6.31;100.00;99858.31;5014859;28;20225;-71
2021/10/01 05:07:01;;;;;;;6.30;5.38;;;;;;;6.28;99.90;99861.13;5014830;28;20677;-71
2021/10/01 05:09:27;;;;;;;6.97;5.78;;;;;;;6.40;99.18;99856.22;5014789;28;20294;-71
2021/10/01 05:11:54;;;;;;;6.15;4.90;;;;;;;6.10;100.00;99860.84;5014346;28;20197;-71
2021/10/01 05:14:20;;;;;;;4.95;4.35;;;;;;;6.24;100.00;99853.22;5026490;28;20198;-71
2021/10/01 05:16:48;;;;;;;6.45;5.45;;;;;;;6.31;100.00;99859.22;5027725;28;20225;-72
2021/10/01 05:19:15;;;;;;;5.78;4.45;;;;;;;6.44;99.46;99862.28;5025929;28;20535;-71
2021/10/01 05:21:41;;;;;;;6.15;4.95;;;;;;;6.28;99.57;99867.34;5034392;28;20190;-72
2021/10/01 05:24:08;;;;;;;6.07;5.47;;;;;;;6.38;100.00;99851.84;5033707;28;20190;-70
2021/10/01 05:26:35;;;;;;;6.55;4.90;;;;;;;6.27;100.00;99860.25;5033629;28;20577;-70
2021/10/01 05:29:01;;;;;;;6.63;5.63;;;;;;;6.47;99.63;99849.69;5014199;28;20232;-70
2021/10/01 05:31:28;;;;;;;8.13;5.03;;;;;;;6.32;98.60;99850.25;5013051;28;20195;-71
2021/10/01 05:33:56;;;;;;;5.40;4.60;;;;;;;6.07;100.00;99849.41;5026083;28;20691;-71
2021/10/01 05:36:23;;;;;;;6.13;5.07;;;;;;;6.27;100.00;99852.22;5013944;28;20633;-71
2021/10/01 05:38:50;;;;;;;6.35;4.38;;;;;;;6.38;99.98;99850.03;5018962;28;20216;-73
2021/10/01 05:41:16;;;;;;;8.23;5.30;;;;;;;6.28;99.78;99853.97;5021280;28;20297;-73
2021/10/01 05:43:43;;;;;;;6.55;4.80;;;;;;;6.35;98.71;99852.81;5024640;28;20224;-70
2021/10/01 05:46:10;;;;;;;14.32;7.57;;;;;;;6.52;98.59;99843.31;5020987;28;20656;-71
2021/10/01 05:48:39;;;;;;;10.18;7.20;;;;;;;6.38;97.94;99846.50;5023385;28;20210;-70
2021/10/01 05:51:10;;;;;;;9.75;6.20;;;;;;;6.44;97.30;99852.50;5022800;28;20665;-70
2021/10/01 05:53:46;;;;;;;6.55;5.45;;;;;;;6.53;96.91;99850.38;5021856;28;20274;-70
2021/10/01 05:56:14;;;;;;;7.68;6.32;;;;;;;6.54;96.07;99846.78;5021301;28;20640;-71
2021/10/01 05:58:42;;;;;;;9.85;5.68;;;;;;;6.44;96.23;99843.56;5022686;28;20193;-72
2021/10/01 06:01:10;;;;;;;5.40;4.90;;;;;;;6.18;97.63;99847.22;5022727;28;20194;-72
2021/10/01 06:03:37;;;;;;;8.45;6.35;;;;;;;6.23;99.17;99843.44;5021023;28;20665;-70
2021/10/01 06:06:03;;;;;;;9.13;5.32;;;;;;;6.23;98.69;99839.91;5021963;28;20208;-70
2021/10/01 06:08:31;;;;;;;8.75;5.75;;;;;;;6.20;99.90;99840.88;5023667;28;20668;-70
2021/10/01 06:10:59;;;;;;;8.32;5.22;;;;;;;6.28;99.43;99843.25;5021897;28;20187;-72
2021/10/01 06:13:26;;;;;;;7.07;5.35;;;;;;;6.25;99.05;99843.38;5021466;28;20190;-71
2021/10/01 06:15:54;;;;;;;7.25;5.75;;;;;;;6.32;98.94;99842.22;5023303;28;20679;-71
2021/10/01 06:18:21;;;;;;;9.13;5.40;;;;;;;6.28;98.26;99840.59;5019265;28;20266;-71
2021/10/01 06:20:53;;;;;;;6.00;5.40;;;;;;;6.25;98.83;99843.38;5022187;28;20189;-72
2021/10/01 06:23:22;;;;;;;7.20;5.75;;;;;;;6.21;98.91;99831.06;5022157;28;20201;-71
2021/10/01 06:25:50;;;;;;;9.02;6.00;;;;;;;6.30;99.59;99845.91;5021061;28;20615;-71
2021/10/01 06:28:17;;;;;;;6.40;5.50;;;;;;;6.30;99.23;99841.41;5019755;28;20357;-71
2021/10/01 06:30:43;;;;;;;10.60;6.15;;;;;;;6.26;99.54;99842.44;5017028;28;20191;-71
2021/10/01 06:33:10;;;;;;;8.85;5.50;;;;;;;6.35;99.68;99855.47;5019399;28;20194;-71
2021/10/01 06:35:37;;;;;;;7.93;5.40;;;;;;;6.62;98.12;99847.38;5017743;28;20183;-71
2021/10/01 06:38:04;;;;;;;8.98;6.65;;;;;;;6.75;96.77;99847.78;5021038;28;20747;-70
2021/10/01 06:40:30;;;;;;;9.27;5.53;;;;;;;6.70;97.06;99847.09;5023362;28;20203;-71
2021/10/01 06:43:01;;;;;;;6.82;5.22;;;;;;;6.68;96.45;99853.34;5019166;28;20288;-72
2021/10/01 06:45:29;;;;;;;7.78;5.40;;;;;;;6.81;95.92;99848.41;5019877;28;20193;-71
2021/10/01 06:48:09;;;;;;;7.05;5.68;;;;;;;6.81;95.85;99848.41;5021521;28;20579;-72
2021/10/01 07:23:51;;;;;;;13.15;8.20;;;;;;;8.22;91.43;99820.19;4993810;28;20200;-70
2021/10/01 08:21:35;;;;;;;11.82;5.18;;;;;;;10.82;76.52;99805.38;5014658;28;20272;-71
2021/10/01 08:24:02;;;;;;;9.63;4.97;;;;;;;10.99;74.85;99807.16;5018443;28;20750;-69
2021/10/01 08:26:30;;;;;;;7.68;5.78;;;;;;;11.05;74.68;99804.09;5014820;28;20652;-69
2021/10/01 08:28:57;;;;;;;7.13;4.03;;;;;;;11.21;74.24;99798.69;5014619;28;20234;-71
2021/10/01 08:31:27;;;;;;;24.10;6.20;;;;;;;11.34;73.78;99801.56;5014673;28;20856;-70
2021/10/01 08:33:54;;;;;;;10.23;5.63;;;;;;;11.42;73.44;99793.03;5014640;28;20194;-70
2021/10/01 08:36:21;;;;;;;7.13;4.95;;;;;;;11.54;72.84;99789.59;5014708;28;20627;-71
2021/10/01 08:38:50;;;;;;;8.70;4.90;;;;;;;11.59;71.95;99792.03;5014594;28;20538;-71
2021/10/01 08:41:17;;;;;;;13.00;5.65;;;;;;;11.81;71.82;99787.09;5014339;28;20191;-71
2021/10/01 08:43:45;;;;;;;12.13;5.78;;;;;;;11.97;71.66;99797.00;5014123;28;20202;-71
2021/10/01 08:46:13;;;;;;;7.57;4.63;;;;;;;12.11;70.81;99794.31;5014792;28;20214;-70
2021/10/01 08:48:40;;;;;;;8.07;5.57;;;;;;;12.26;70.42;99789.81;5033881;28;20246;-71
2021/10/01 08:51:10;;;;;;;9.30;5.68;;;;;;;12.42;70.08;99787.88;5034323;28;20197;-72
2021/10/01 08:53:37;;;;;;;5.88;3.90;;;;;;;12.44;69.66;99790.50;5034628;28;20296;-72
2021/10/01 08:56:07;;;;;;;5.53;4.82;;;;;;;12.46;69.69;99783.16;5034411;28;20517;-71
2021/10/01 08:58:34;;;;;;;7.85;5.32;;;;;;;12.61;69.57;99787.56;5034162;28;20197;-71
2021/10/01 09:01:02;;;;;;;7.90;4.20;;;;;;;12.84;68.95;99779.84;5025811;28;20190;-72
2021/10/01 09:03:29;;;;;;;5.82;4.00;;;;;;;12.98;67.82;99769.00;5034240;28;20301;-71
2021/10/01 09:05:55;;;;;;;6.00;4.85;;;;;;;13.28;66.75;99784.22;5033669;28;20660;-72
2021/10/01 09:08:24;;;;;;;6.75;4.50;;;;;;;13.45;65.70;99775.81;5033395;28;20229;-71
2021/10/01 09:10:59;;;;;;;3.90;3.47;;;;;;;13.65;65.17;99762.78;5032356;28;20566;-70
2021/10/01 09:13:28;;;;;;;10.90;4.30;;;;;;;13.87;64.25;99768.47;5033352;28;20198;-71
2021/10/01 09:16:03;;;;;;;8.57;4.10;;;;;;;13.98;63.75;99765.03;5033853;28;20623;-69
2021/10/01 09:18:32;;;;;;;8.45;3.95;;;;;;;14.17;63.28;99765.44;5033352;28;20190;-70
2021/10/01 09:21:10;;;;;;;10.05;5.32;;;;;;;14.31;62.31;99767.22;5033889;28;20299;-70
2021/10/01 09:23:42;;;;;;;4.95;3.42;;;;;;;14.41;61.78;99764.69;5029000;28;20194;-70
2021/10/01 09:26:12;;;;;;;5.22;4.00;;;;;;;14.56;60.91;99762.75;5013972;28;20279;-70
2021/10/01 09:28:51;;;;;;;4.47;3.20;;;;;;;14.72;60.38;99760.69;5013540;28;20268;-70
2021/10/01 09:31:46;;;;;;;7.78;5.28;;;;;;;14.86;59.99;99756.09;5013267;28;20194;-72
2021/10/01 09:34:15;;;;;;;5.22;3.30;;;;;;;14.85;60.10;99746.22;4978620;28;20247;-70
2021/10/01 09:36:43;;;;;;;5.45;3.40;;;;;;;14.84;60.28;99739.06;5013524;28;20221;-71
2021/10/01 09:39:25;;;;;;;4.82;2.83;;;;;;;15.02;59.66;99735.00;5013504;28;20190;-70
2021/10/01 09:41:52;;;;;;;6.53;3.97;;;;;;;15.04;59.74;99724.91;5022141;28;20623;-70
2021/10/01 09:44:21;;;;;;;3.85;3.05;;;;;;;15.14;59.11;99725.94;5033154;28;20928;-70
2021/10/01 09:46:50;;;;;;;7.10;3.30;;;;;;;15.47;58.15;99727.09;5032114;28;20840;-71
2021/10/01 09:49:19;;;;;;;3.90;2.75;;;;;;;15.70;56.79;99724.47;5030735;28;20236;-70
2021/10/01 09:51:51;;;;;;;6.53;2.10;;;;;;;15.76;53.18;99722.16;5012301;28;20194;-72
2021/10/01 09:54:20;;;;;;;3.85;1.80;;;;;;;15.71;52.76;99718.06;5025233;28;20288;-71
2021/10/01 09:56:47;;;;;;;7.30;2.97;;;;;;;15.75;52.44;99722.28;5032465;28;20317;-71
2021/10/01 09:59:19;;;;;;;4.75;2.38;;;;;;;15.88;52.49;99717.63;5030993;28;20236;-70
2021/10/01 10:02:08;;;;;;;5.65;3.25;;;;;;;15.87;52.10;99717.72;5025257;28;20220;-70
2021/10/01 10:04:37;;;;;;;11.82;3.58;;;;;;;15.82;52.79;99705.38;5012819;28;20595;-71
2021/10/01 10:07:18;;;;;;;3.22;1.83;;;;;;;15.80;52.61;99707.34;5012291;28;20653;-70
2021/10/01 10:09:49;;;;;;;3.05;1.92;;;;;;;15.88;52.08;99698.63;5011969;28;20211;-70
2021/10/01 10:12:18;;;;;;;2.47;1.45;;;;;;;16.07;52.31;99697.16;5012652;28;20191;-70
2021/10/01 10:14:51;;;;;;;4.50;1.83;;;;;;;16.32;52.52;99690.63;5011934;28;20202;-72
2021/10/01 10:17:22;;;;;;;4.82;2.80;;;;;;;16.51;52.65;99684.53;5021822;28;20197;-71
2021/10/01 10:19:50;;;;;;;9.00;3.85;;;;;;;16.76;52.38;99678.84;5032656;28;20186;-72
2021/10/01 10:22:19;;;;;;;4.15;2.80;;;;;;;16.77;51.91;99677.84;5032132;28;20201;-70
2021/10/01 10:24:46;;;;;;;6.80;5.57;;;;;;;16.78;52.59;99682.31;5018101;28;20242;-70
2021/10/01 10:27:13;;;;;;;2.35;2.00;;;;;;;16.76;51.06;99675.28;5018022;28;20675;-70
2021/10/01 10:29:40;;;;;;;5.63;2.10;;;;;;;16.76;51.57;99667.13;5018767;28;20677;-70
2021/10/01 10:32:10;;;;;;;1.50;1.40;;;;;;;16.67;51.06;99666.88;5012323;28;20207;-69
2021/10/01 10:34:50;;;;;;;2.97;1.70;;;;;;;16.69;51.53;99664.03;5032121;28;20190;-72
2021/10/01 10:37:17;;;;;;;5.13;2.40;;;;;;;16.70;51.76;99667.63;5032618;28;20535;-71
2021/10/01 10:39:54;;;;;;;2.30;1.75;;;;;;;16.75;52.21;99659.94;5032526;28;20265;-71
2021/10/01 10:42:29;;;;;;;4.95;2.60;;;;;;;16.83;51.99;99661.06;5031801;28;20566;-70
2021/10/01 10:44:58;;;;;;;3.80;2.80;;;;;;;17.06;51.43;99653.69;5032347;28;20620;-72
2021/10/01 10:47:44;;;;;;;1.73;1.58;;;;;;;16.95;50.83;99656.44;5032276;28;20640;-71
2021/10/01 10:50:42;;;;;;;4.85;2.10;;;;;;;16.83;50.91;99652.03;5032321;28;20666;-71
2021/10/01 10:53:25;;;;;;;2.30;2.10;;;;;;;17.13;50.59;99640.44;5032391;28;20186;-71
2021/10/01 10:56:18;;;;;;;2.67;1.38;;;;;;;17.17;50.70;99643.78;5032063;28;20210;-73
2021/10/01 10:58:55;;;;;;;2.65;1.95;;;;;;;17.15;50.97;99632.16;5031663;28;20190;-72
2021/10/01 11:01:36;;;;;;;2.95;2.75;;;;;;;17.24;51.07;99628.66;5032168;28;20545;-71
2021/10/01 11:04:30;;;;;;;2.10;1.83;;;;;;;17.33;51.23;99621.56;5031717;28;20305;-71
2021/10/01 11:06:59;;;;;;;3.58;2.50;;;;;;;17.33;50.65;99613.38;5029148;28;20202;-73
2021/10/01 11:09:32;;;;;;;3.72;1.85;;;;;;;17.41;49.94;99613.56;5031842;28;20202;-72
2021/10/01 11:12:01;;;;;;;2.85;1.92;;;;;;;17.27;49.60;99606.59;5032142;28;20320;-72
2021/10/01 11:14:33;;;;;;;3.25;1.88;;;;;;;17.29;49.19;99608.19;5032233;28;20193;-72
2021/10/01 11:17:19;;;;;;;3.45;1.40;;;;;;;17.24;49.07;99607.72;5032035;28;20278;-72
2021/10/01 11:19:51;;;;;;;4.82;2.58;;;;;;;17.44;48.63;99607.88;5031571;28;20245;-72
2021/10/01 11:22:43;;;;;;;3.97;2.65;;;;;;;17.56;48.58;99600.50;5031856;28;20625;-72
2021/10/01 11:25:16;;;;;;;3.95;2.15;;;;;;;17.59;47.95;99606.56;5014648;28;20199;-71
2021/10/01 11:27:54;;;;;;;2.95;2.13;;;;;;;17.55;48.18;99594.19;5012055;28;20187;-73
2021/10/01 11:30:22;;;;;;;4.40;2.80;;;;;;;17.64;48.22;99600.72;5011372;28;20190;-72
2021/10/01 11:32:49;;;;;;;2.17;1.23;;;;;;;17.64;48.04;99596.13;5012028;28;20190;-72
2021/10/01 11:35:17;;;;;;;4.45;2.35;;;;;;;17.69;48.56;99593.84;5012050;28;20843;-72
2021/10/01 11:37:48;;;;;;;1.75;1.30;;;;;;;17.67;48.16;99579.50;5011958;28;20238;-73
2021/10/01 11:40:20;;;;;;;3.28;2.20;;;;;;;17.76;48.81;99580.56;5011512;28;20191;-72
2021/10/01 11:42:48;;;;;;;4.43;1.52;;;;;;;17.68;47.44;99572.19;5011322;28;20187;-71
2021/10/01 11:45:17;;;;;;;2.60;1.80;;;;;;;17.80;46.78;99570.25;5011437;28;20197;-72
2021/10/01 11:47:53;;;;;;;9.20;8.10;;;;;;;17.80;47.69;99562.94;5011261;28;20291;-73
2021/10/01 11:50:27;;;;;;;3.42;3.10;;;;;;;17.79;48.15;99563.94;5011433;28;20553;-71
2021/10/01 11:52:59;;;;;;;4.40;3.03;;;;;;;17.85;47.77;99557.13;5012498;28;20190;-73
2021/10/01 11:55:27;;;;;;;5.95;2.17;;;;;;;17.90;46.71;99563.00;5015453;28;20539;-72
2021/10/01 11:57:54;;;;;;;2.78;1.40;;;;;;;17.73;46.06;99553.59;5015205;28;20223;-73
2021/10/01 12:00:22;;;;;;;2.55;1.70;;;;;;;17.60;46.91;99558.41;5015248;28;20202;-72
2021/10/01 12:02:51;;;;;;;1.92;1.58;;;;;;;17.68;45.98;99561.28;5015150;28;20199;-72
2021/10/01 12:05:23;;;;;;;4.07;1.80;;;;;;;17.70;46.10;99552.03;5015322;28;20191;-72
2021/10/01 12:07:51;;;;;;;3.10;1.50;;;;;;;17.62;46.43;99556.41;5015332;28;20698;-73
2021/10/01 12:10:20;;;;;;;4.05;1.70;;;;;;;17.55;46.85;99542.47;5015015;28;20230;-72
2021/10/01 12:13:02;;;;;;;1.92;1.40;;;;;;;17.42;47.86;99544.56;5015141;28;20282;-70
2021/10/01 12:15:41;;;;;;;2.47;1.40;;;;;;;17.49;47.58;99527.53;5014333;28;20245;-71
2021/10/01 12:18:25;;;;;;;1.70;1.23;;;;;;;17.58;46.07;99538.63;5014655;28;20273;-71
2021/10/01 12:20:52;;;;;;;6.10;4.20;;;;;;;17.70;46.30;99523.91;5015118;28;20187;-72
2021/10/01 12:23:20;;;;;;;6.68;5.80;;;;;;;17.76;46.54;99517.91;5014913;28;20213;-71
2021/10/01 12:25:50;;;;;;;2.05;1.30;;;;;;;17.79;45.50;99514.91;5015026;28;20700;-72
2021/10/01 12:28:17;;;;;;;1.30;1.00;;;;;;;17.77;45.92;99516.91;5014330;28;20230;-71
2021/10/01 12:30:44;;;;;;;3.15;1.23;;;;;;;17.71;46.14;99503.88;5014095;28;20207;-72
2021/10/01 12:33:11;;;;;;;3.55;1.65;;;;;;;17.83;45.75;99510.09;5025247;28;20208;-72
2021/10/01 12:35:38;;;;;;;6.97;2.95;;;;;;;17.84;46.06;99509.97;5033443;28;20263;-71
2021/10/01 12:38:05;;;;;;;3.00;2.10;;;;;;;17.87;44.84;99501.50;5034040;28;20251;-71
2021/10/01 12:40:32;;;;;;;1.58;1.35;;;;;;;17.77;45.44;99495.13;5034394;28;20239;-71
2021/10/01 12:43:00;;;;;;;2.92;1.80;;;;;;;17.85;44.33;99481.72;5029518;28;20581;-72
2021/10/01 12:45:26;;;;;;;1.60;1.20;;;;;;;18.13;42.41;99480.09;5020773;28;20228;-71
2021/10/01 12:47:53;;;;;;;3.25;1.50;;;;;;;18.27;43.01;99484.28;5015427;28;20187;-72
2021/10/01 12:50:22;;;;;;;3.65;1.67;;;;;;;18.65;42.11;99492.59;5028185;28;20223;-72
2021/10/01 12:52:56;;;;;;;1.70;1.20;;;;;;;18.92;41.37;99475.53;5014929;28;20188;-71
2021/10/01 12:55:23;;;;;;;3.92;1.58;;;;;;;19.23;41.61;99472.63;5015017;28;20295;-72
2021/10/01 12:57:50;;;;;;;3.30;1.60;;;;;;;19.52;40.55;99472.53;5014882;28;20260;-72
2021/10/01 13:00:20;;;;;;;2.13;1.40;;;;;;;19.54;39.19;99456.84;5016983;28;20186;-71
2021/10/01 13:02:49;;;;;;;3.63;1.25;;;;;;;19.94;38.78;99455.66;5034143;28;20277;-71
2021/10/01 13:05:22;;;;;;;1.90;1.30;;;;;;;20.26;38.83;99457.03;5027408;28;20289;-72
2021/10/01 13:07:50;;;;;;;1.70;1.20;;;;;;;20.60;37.96;99460.00;5014478;28;20202;-72
2021/10/01 13:10:37;;;;;;;3.00;1.57;;;;;;;20.56;37.80;99448.50;5014555;28;20241;-71
2021/10/01 13:13:09;;;;;;;3.80;1.60;;;;;;;20.77;37.82;99450.03;5015139;28;20528;-72
2021/10/01 13:15:43;;;;;;;3.97;1.63;;;;;;;21.26;37.11;99447.69;5014191;28;20214;-70